sensor_id;sensor_type;location;lat;lon;timestamp;pressure;altitude;pressure_sealevel;temperature;humidity
19208;BME280;9737;59.466;18.036;2023-02-26T00:01:28;95019.84;;;-4.01;77.55
19208;BME280;9737;59.466;18.036;2023-02-26T00:03:58;95068.72;;;-3.89;77.62
19208;BME280;9737;59.466;18.036;2023-02-26T00:06:27;95100.34;;;-3.85;77.44
19208;BME280;9737;59.466;18.036;2023-02-26T00:08:56;95123.47;;;-3.74;77.68
19208;BME280;9737;59.466;18.036;2023-02-26T00:11:25;95137.78;;;-3.70;77.79
19208;BME280;9737;59.466;18.036;2023-02-26T00:13:54;95156.28;;;-3.65;77.82
19208;BME280;9737;59.466;18.036;2023-02-26T00:16:26;95181.63;;;-3.59;77.66
19208;BME280;9737;59.466;18.036;2023-02-26T00:18:58;95205.03;;;-3.51;77.47
19208;BME280;9737;59.466;18.036;2023-02-26T00:21:30;95247.31;;;-3.40;77.58
19208;BME280;9737;59.466;18.036;2023-02-26T00:23:58;95269.72;;;-3.39;77.61
19208;BME280;9737;59.466;18.036;2023-02-26T00:26:29;95275.91;;;-3.32;77.86
19208;BME280;9737;59.466;18.036;2023-02-26T00:28:59;95286.00;;;-3.29;77.83
19208;BME280;9737;59.466;18.036;2023-02-26T00:31:28;95282.75;;;-3.31;77.57
19208;BME280;9737;59.466;18.036;2023-02-26T00:33:56;95242.44;;;-3.44;77.74
19208;BME280;9737;59.466;18.036;2023-02-26T00:36:32;95208.59;;;-3.52;77.74
19208;BME280;9737;59.466;18.036;2023-02-26T00:41:49;95223.88;;;-3.49;77.82
19208;BME280;9737;59.466;18.036;2023-02-26T00:44:20;95236.25;;;-3.42;77.71
19208;BME280;9737;59.466;18.036;2023-02-26T00:46:53;95226.31;;;-3.47;77.80
19208;BME280;9737;59.466;18.036;2023-02-26T00:49:27;95230.41;;;-3.45;77.92
19208;BME280;9737;59.466;18.036;2023-02-26T00:52:04;95249.25;;;-3.42;77.41
19208;BME280;9737;59.466;18.036;2023-02-26T00:54:32;95243.25;;;-3.43;77.70
19208;BME280;9737;59.466;18.036;2023-02-26T00:57:00;95194.31;;;-3.56;77.91
19208;BME280;9737;59.466;18.036;2023-02-26T00:59:31;95162.44;;;-3.66;77.86
19208;BME280;9737;59.466;18.036;2023-02-26T01:01:59;95134.50;;;-3.72;77.64
19208;BME280;9737;59.466;18.036;2023-02-26T01:04:27;95096.63;;;-3.83;77.92
19208;BME280;9737;59.466;18.036;2023-02-26T01:06:56;95081.53;;;-3.87;77.74
19208;BME280;9737;59.466;18.036;2023-02-26T01:09:26;95017.41;;;-4.03;77.58
19208;BME280;9737;59.466;18.036;2023-02-26T01:11:56;94942.59;;;-4.24;77.78
19208;BME280;9737;59.466;18.036;2023-02-26T01:14:28;94883.50;;;-4.38;77.91
19208;BME280;9737;59.466;18.036;2023-02-26T01:17:02;94835.69;;;-4.52;77.67
19208;BME280;9737;59.466;18.036;2023-02-26T01:19:40;94846.84;;;-4.51;77.74
19208;BME280;9737;59.466;18.036;2023-02-26T01:22:17;94820.75;;;-4.58;77.66
19208;BME280;9737;59.466;18.036;2023-02-26T01:24:47;94853.34;;;-4.47;77.74
19208;BME280;9737;59.466;18.036;2023-02-26T01:27:16;94864.53;;;-4.47;77.67
19208;BME280;9737;59.466;18.036;2023-02-26T01:29:44;94843.47;;;-4.52;77.76
19208;BME280;9737;59.466;18.036;2023-02-26T01:32:18;94801.16;;;-4.60;77.89
19208;BME280;9737;59.466;18.036;2023-02-26T01:34:55;94801.16;;;-4.60;77.65
19208;BME280;9737;59.466;18.036;2023-02-26T01:37:32;94836.66;;;-4.53;77.71
19208;BME280;9737;59.466;18.036;2023-02-26T01:40:33;94866.97;;;-4.45;77.71
19208;BME280;9737;59.466;18.036;2023-02-26T01:43:06;94912.09;;;-4.30;77.78
19208;BME280;9737;59.466;18.036;2023-02-26T01:45:44;94956.84;;;-4.20;77.74
19208;BME280;9737;59.466;18.036;2023-02-26T01:48:30;95019.19;;;-4.03;77.73
19208;BME280;9737;59.466;18.036;2023-02-26T01:51:01;95083.00;;;-3.85;77.95
19208;BME280;9737;59.466;18.036;2023-02-26T01:53:29;95139.41;;;-3.69;77.73
19208;BME280;9737;59.466;18.036;2023-02-26T01:55:59;95213.63;;;-3.50;77.82
19208;BME280;9737;59.466;18.036;2023-02-26T01:58:31;95277.56;;;-3.31;77.72
19208;BME280;9737;59.466;18.036;2023-02-26T02:01:00;95320.78;;;-3.22;77.91
19208;BME280;9737;59.466;18.036;2023-02-26T02:03:33;95335.09;;;-3.18;77.98
19208;BME280;9737;59.466;18.036;2023-02-26T02:06:05;95370.44;;;-3.07;77.86
19208;BME280;9737;59.466;18.036;2023-02-26T02:08:34;95382.31;;;-3.05;78.01
19208;BME280;9737;59.466;18.036;2023-02-26T02:11:06;95403.44;;;-3.00;78.03
19208;BME280;9737;59.466;18.036;2023-02-26T02:13:49;95380.53;;;-3.04;78.12
19208;BME280;9737;59.466;18.036;2023-02-26T02:16:30;95390.91;;;-3.04;77.82
19208;BME280;9737;59.466;18.036;2023-02-26T02:19:14;95395.97;;;-3.03;78.17
19208;BME280;9737;59.466;18.036;2023-02-26T02:21:53;95360.50;;;-3.12;77.93
19208;BME280;9737;59.466;18.036;2023-02-26T02:24:34;95331.84;;;-3.20;77.90
19208;BME280;9737;59.466;18.036;2023-02-26T02:27:09;95325.69;;;-3.19;78.04
19208;BME280;9737;59.466;18.036;2023-02-26T02:35:08;95314.13;;;-3.25;77.89
19208;BME280;9737;59.466;18.036;2023-02-26T02:37:45;95329.91;;;-3.18;78.01
19208;BME280;9737;59.466;18.036;2023-02-26T02:40:17;95341.00;;;-3.16;78.19
19208;BME280;9737;59.466;18.036;2023-02-26T02:42:50;95318.19;;;-3.22;77.99
19208;BME280;9737;59.466;18.036;2023-02-26T02:45:22;95308.09;;;-3.25;78.13
19208;BME280;9737;59.466;18.036;2023-02-26T02:47:54;95313.31;;;-3.25;78.12
19208;BME280;9737;59.466;18.036;2023-02-26T02:50:29;95269.41;;;-3.36;78.23
19208;BME280;9737;59.466;18.036;2023-02-26T02:53:00;95257.69;;;-3.40;77.95
19208;BME280;9737;59.466;18.036;2023-02-26T02:55:33;95210.22;;;-3.51;77.99
19208;BME280;9737;59.466;18.036;2023-02-26T02:58:04;95170.75;;;-3.62;78.08
19208;BME280;9737;59.466;18.036;2023-02-26T03:00:37;95154.66;;;-3.66;78.02
19208;BME280;9737;59.466;18.036;2023-02-26T03:03:09;95109.97;;;-3.78;77.97
19208;BME280;9737;59.466;18.036;2023-02-26T03:05:42;95087.38;;;-3.85;78.10
19208;BME280;9737;59.466;18.036;2023-02-26T03:08:12;95008.13;;;-4.06;78.17
19208;BME280;9737;59.466;18.036;2023-02-26T03:10:42;94974.69;;;-4.17;77.99
19208;BME280;9737;59.466;18.036;2023-02-26T03:13:15;95003.25;;;-4.09;78.14
19208;BME280;9737;59.466;18.036;2023-02-26T03:15:54;95015.09;;;-4.06;77.96
19208;BME280;9737;59.466;18.036;2023-02-26T03:18:31;94976.16;;;-4.14;78.04
19208;BME280;9737;59.466;18.036;2023-02-26T03:21:11;94957.00;;;-4.21;78.08
19208;BME280;9737;59.466;18.036;2023-02-26T03:23:45;94951.97;;;-4.23;78.10
19208;BME280;9737;59.466;18.036;2023-02-26T03:26:23;94924.91;;;-4.28;78.01
19208;BME280;9737;59.466;18.036;2023-02-26T03:28:57;94896.16;;;-4.35;78.00
19208;BME280;9737;59.466;18.036;2023-02-26T03:31:29;94892.25;;;-4.39;78.02
19208;BME280;9737;59.466;18.036;2023-02-26T03:34:00;94885.28;;;-4.39;77.89
19208;BME280;9737;59.466;18.036;2023-02-26T03:36:34;94840.88;;;-4.52;77.98
19208;BME280;9737;59.466;18.036;2023-02-26T03:39:08;94834.88;;;-4.52;78.04
19208;BME280;9737;59.466;18.036;2023-02-26T03:41:41;94836.50;;;-4.51;77.95
19208;BME280;9737;59.466;18.036;2023-02-26T03:44:15;94819.63;;;-4.55;77.94
19208;BME280;9737;59.466;18.036;2023-02-26T03:46:49;94802.25;;;-4.63;77.89
19208;BME280;9737;59.466;18.036;2023-02-26T03:49:23;94815.25;;;-4.55;77.99
19208;BME280;9737;59.466;18.036;2023-02-26T03:51:54;94786.22;;;-4.67;78.10
19208;BME280;9737;59.466;18.036;2023-02-26T03:54:27;94761.75;;;-4.72;78.20
19208;BME280;9737;59.466;18.036;2023-02-26T03:56:57;94730.47;;;-4.79;77.89
19208;BME280;9737;59.466;18.036;2023-02-26T03:59:25;94761.59;;;-4.71;78.16
19208;BME280;9737;59.466;18.036;2023-02-26T04:01:57;94760.13;;;-4.73;78.03
19208;BME280;9737;59.466;18.036;2023-02-26T04:04:29;94775.34;;;-4.70;78.08
19208;BME280;9737;59.466;18.036;2023-02-26T04:07:01;94772.59;;;-4.69;77.94
19208;BME280;9737;59.466;18.036;2023-02-26T04:09:29;94760.78;;;-4.71;78.01
19208;BME280;9737;59.466;18.036;2023-02-26T04:11:57;94754.94;;;-4.73;77.87
19208;BME280;9737;59.466;18.036;2023-02-26T04:14:28;94723.34;;;-4.85;78.02
19208;BME280;9737;59.466;18.036;2023-02-26T04:16:58;94718.81;;;-4.83;77.79
19208;BME280;9737;59.466;18.036;2023-02-26T04:19:26;94695.16;;;-4.88;77.98
19208;BME280;9737;59.466;18.036;2023-02-26T04:21:57;94670.19;;;-4.97;78.13
19208;BME280;9737;59.466;18.036;2023-02-26T04:24:27;94648.16;;;-5.01;77.82
19208;BME280;9737;59.466;18.036;2023-02-26T04:26:55;94633.25;;;-5.07;77.84
19208;BME280;9737;59.466;18.036;2023-02-26T04:29:23;94640.72;;;-5.04;77.98
19208;BME280;9737;59.466;18.036;2023-02-26T04:31:52;94625.16;;;-5.12;78.12
19208;BME280;9737;59.466;18.036;2023-02-26T04:34:20;94624.84;;;-5.09;77.84
19208;BME280;9737;59.466;18.036;2023-02-26T04:36:48;94632.94;;;-5.04;77.90
19208;BME280;9737;59.466;18.036;2023-02-26T04:39:16;94621.94;;;-5.06;77.95
19208;BME280;9737;59.466;18.036;2023-02-26T04:41:45;94629.69;;;-5.06;77.81
19208;BME280;9737;59.466;18.036;2023-02-26T04:44:13;94651.41;;;-4.99;77.95
19208;BME280;9737;59.466;18.036;2023-02-26T04:46:41;94666.63;;;-4.96;77.97
19208;BME280;9737;59.466;18.036;2023-02-26T04:49:09;94707.13;;;-4.87;77.83
19208;BME280;9737;59.466;18.036;2023-02-26T04:51:37;94712.00;;;-4.84;78.34
19208;BME280;9737;59.466;18.036;2023-02-26T04:54:05;94733.38;;;-4.82;78.00
19208;BME280;9737;59.466;18.036;2023-02-26T04:56:33;94746.50;;;-4.75;77.86
19208;BME280;9737;59.466;18.036;2023-02-26T04:59:02;94761.25;;;-4.68;77.95
19208;BME280;9737;59.466;18.036;2023-02-26T05:01:30;94789.44;;;-4.64;77.99
19208;BME280;9737;59.466;18.036;2023-02-26T05:03:58;94797.91;;;-4.62;77.96
19208;BME280;9737;59.466;18.036;2023-02-26T05:06:27;94787.53;;;-4.62;77.98
19208;BME280;9737;59.466;18.036;2023-02-26T05:08:55;94801.16;;;-4.60;78.22
19208;BME280;9737;59.466;18.036;2023-02-26T05:11:23;94794.47;;;-4.63;78.00
19208;BME280;9737;59.466;18.036;2023-02-26T05:13:50;94798.56;;;-4.60;78.11
19208;BME280;9737;59.466;18.036;2023-02-26T05:16:20;94811.22;;;-4.57;78.07
19208;BME280;9737;59.466;18.036;2023-02-26T05:18:48;94841.69;;;-4.51;77.72
19208;BME280;9737;59.466;18.036;2023-02-26T05:21:15;94845.91;;;-4.50;78.17
19208;BME280;9737;59.466;18.036;2023-02-26T05:23:43;94865.19;;;-4.45;78.24
19208;BME280;9737;59.466;18.036;2023-02-26T05:26:11;94877.03;;;-4.42;78.14
19208;BME280;9737;59.466;18.036;2023-02-26T05:28:39;94900.38;;;-4.34;78.17
19208;BME280;9737;59.466;18.036;2023-02-26T05:31:07;94909.81;;;-4.33;78.17
19208;BME280;9737;59.466;18.036;2023-02-26T05:33:36;94920.84;;;-4.31;78.08
19208;BME280;9737;59.466;18.036;2023-02-26T05:36:04;94935.78;;;-4.25;78.00
19208;BME280;9737;59.466;18.036;2023-02-26T05:38:33;94939.03;;;-4.23;78.06
19208;BME280;9737;59.466;18.036;2023-02-26T05:41:01;94957.81;;;-4.21;78.25
19208;BME280;9737;59.466;18.036;2023-02-26T05:43:29;94998.38;;;-4.12;78.32
19208;BME280;9737;59.466;18.036;2023-02-26T05:45:59;94988.31;;;-4.15;78.08
19208;BME280;9737;59.466;18.036;2023-02-26T05:48:27;95026.66;;;-4.00;78.29
19208;BME280;9737;59.466;18.036;2023-02-26T05:50:56;95040.97;;;-3.96;78.43
19208;BME280;9737;59.466;18.036;2023-02-26T05:53:24;95061.25;;;-3.92;78.25
19208;BME280;9737;59.466;18.036;2023-02-26T05:55:52;95078.28;;;-3.89;78.34
19208;BME280;9737;59.466;18.036;2023-02-26T05:58:20;95068.88;;;-3.90;78.18
19208;BME280;9737;59.466;18.036;2023-02-26T06:00:48;95083.81;;;-3.84;78.45
19208;BME280;9737;59.466;18.036;2023-02-26T06:03:16;95078.94;;;-3.87;78.29
19208;BME280;9737;59.466;18.036;2023-02-26T06:05:44;95092.25;;;-3.82;78.23
19208;BME280;9737;59.466;18.036;2023-02-26T06:08:13;95092.25;;;-3.82;78.23
19208;BME280;9737;59.466;18.036;2023-02-26T06:10:42;95101.03;;;-3.83;78.27
19208;BME280;9737;59.466;18.036;2023-02-26T06:13:10;95094.19;;;-3.84;78.47
19208;BME280;9737;59.466;18.036;2023-02-26T06:15:37;95099.91;;;-3.81;78.25
19208;BME280;9737;59.466;18.036;2023-02-26T06:18:05;95068.88;;;-3.90;78.20
19208;BME280;9737;59.466;18.036;2023-02-26T06:20:34;95043.56;;;-3.96;78.41
19208;BME280;9737;59.466;18.036;2023-02-26T06:23:02;95018.22;;;-4.02;78.35
19208;BME280;9737;59.466;18.036;2023-02-26T06:25:32;95031.06;;;-4.01;78.40
19208;BME280;9737;59.466;18.036;2023-02-26T06:27:59;94998.06;;;-4.09;78.26
19208;BME280;9737;59.466;18.036;2023-02-26T06:30:28;95020.81;;;-4.02;78.38
19208;BME280;9737;59.466;18.036;2023-02-26T06:32:58;95001.31;;;-4.07;78.43
19208;BME280;9737;59.466;18.036;2023-02-26T06:35:26;95008.94;;;-4.05;78.30
19208;BME280;9737;59.466;18.036;2023-02-26T06:37:55;95046.16;;;-3.96;78.26
19208;BME280;9737;59.466;18.036;2023-02-26T06:40:23;95039.19;;;-3.96;78.39
19208;BME280;9737;59.466;18.036;2023-02-26T06:42:52;95077.31;;;-3.88;78.54
19208;BME280;9737;59.466;18.036;2023-02-26T06:45:21;95062.72;;;-3.89;78.33
19208;BME280;9737;59.466;18.036;2023-02-26T06:47:50;95097.47;;;-3.82;78.33
19208;BME280;9737;59.466;18.036;2023-02-26T06:50:18;95071.63;;;-3.92;78.35
19208;BME280;9737;59.466;18.036;2023-02-26T06:52:46;95103.16;;;-3.79;78.47
19208;BME280;9737;59.466;18.036;2023-02-26T06:55:14;95130.13;;;-3.71;78.17
19208;BME280;9737;59.466;18.036;2023-02-26T06:57:42;95177.41;;;-3.60;78.26
19208;BME280;9737;59.466;18.036;2023-02-26T07:00:12;95210.22;;;-3.51;78.51
19208;BME280;9737;59.466;18.036;2023-02-26T07:02:40;95228.78;;;-3.46;78.42
19208;BME280;9737;59.466;18.036;2023-02-26T07:05:08;95255.75;;;-3.38;78.55
19208;BME280;9737;59.466;18.036;2023-02-26T07:07:36;95266.66;;;-3.35;78.61
19208;BME280;9737;59.466;18.036;2023-02-26T07:10:05;95265.19;;;-3.37;78.38
19208;BME280;9737;59.466;18.036;2023-02-26T07:12:33;95270.06;;;-3.34;78.41
19208;BME280;9737;59.466;18.036;2023-02-26T07:15:01;95407.69;;;-2.99;78.56
19208;BME280;9737;59.466;18.036;2023-02-26T07:17:31;95556.19;;;-2.58;78.23
19208;BME280;9737;59.466;18.036;2023-02-26T07:19:59;95750.78;;;-2.08;78.50
19208;BME280;9737;59.466;18.036;2023-02-26T07:22:31;95891.13;;;-1.70;78.45
19208;BME280;9737;59.466;18.036;2023-02-26T07:24:59;96001.47;;;-1.43;78.61
19208;BME280;9737;59.466;18.036;2023-02-26T07:27:27;96054.56;;;-1.27;78.55
19208;BME280;9737;59.466;18.036;2023-02-26T07:29:55;95981.84;;;-1.47;78.90
19208;BME280;9737;59.466;18.036;2023-02-26T07:32:23;95887.84;;;-1.72;78.96
19208;BME280;9737;59.466;18.036;2023-02-26T07:34:53;95849.78;;;-1.82;78.81
19208;BME280;9737;59.466;18.036;2023-02-26T07:37:21;95815.06;;;-1.91;78.86
19208;BME280;9737;59.466;18.036;2023-02-26T07:39:49;95841.16;;;-1.83;78.49
19208;BME280;9737;59.466;18.036;2023-02-26T07:42:17;95868.38;;;-1.77;78.56
19208;BME280;9737;59.466;18.036;2023-02-26T07:44:45;95891.13;;;-1.70;78.51
19208;BME280;9737;59.466;18.036;2023-02-26T07:47:13;95837.06;;;-1.85;78.76
19208;BME280;9737;59.466;18.036;2023-02-26T07:49:41;95737.38;;;-2.13;78.71
19208;BME280;9737;59.466;18.036;2023-02-26T07:52:10;95727.28;;;-2.16;78.91
19208;BME280;9737;59.466;18.036;2023-02-26T07:54:39;95717.84;;;-2.17;78.90
19208;BME280;9737;59.466;18.036;2023-02-26T07:57:07;95781.13;;;-1.99;78.68
19208;BME280;9737;59.466;18.036;2023-02-26T07:59:34;95892.09;;;-1.71;78.95
19208;BME280;9737;59.466;18.036;2023-02-26T08:02:02;96005.03;;;-1.44;78.97
19208;BME280;9737;59.466;18.036;2023-02-26T08:04:30;96055.69;;;-1.29;79.04
19208;BME280;9737;59.466;18.036;2023-02-26T08:06:58;96114.72;;;-1.10;78.54
19208;BME280;9737;59.466;18.036;2023-02-26T08:09:28;96133.50;;;-1.07;78.87
19208;BME280;9737;59.466;18.036;2023-02-26T08:11:57;96203.94;;;-0.89;78.62
19208;BME280;9737;59.466;18.036;2023-02-26T08:14:25;96293.94;;;-0.66;78.98
19208;BME280;9737;59.466;18.036;2023-02-26T08:16:54;96393.94;;;-0.38;79.01
19208;BME280;9737;59.466;18.036;2023-02-26T08:19:22;96452.88;;;-0.25;78.90
19208;BME280;9737;59.466;18.036;2023-02-26T08:21:53;96485.97;;;-0.16;78.93
19208;BME280;9737;59.466;18.036;2023-02-26T08:24:21;96574.44;;;0.06;79.01
19208;BME280;9737;59.466;18.036;2023-02-26T08:26:51;96580.34;;;0.08;79.25
19208;BME280;9737;59.466;18.036;2023-02-26T08:29:19;96565.78;;;0.06;79.21
19208;BME280;9737;59.466;18.036;2023-02-26T08:31:47;96636.41;;;0.23;78.80
19208;BME280;9737;59.466;18.036;2023-02-26T08:34:15;96990.66;;;1.16;79.29
19208;BME280;9737;59.466;18.036;2023-02-26T08:36:43;97272.16;;;1.89;78.94
19208;BME280;9737;59.466;18.036;2023-02-26T08:39:11;97279.06;;;1.90;79.25
19208;BME280;9737;59.466;18.036;2023-02-26T08:41:39;97241.53;;;1.80;79.08
19208;BME280;9737;59.466;18.036;2023-02-26T08:44:08;97109.84;;;1.49;79.20
19208;BME280;9737;59.466;18.036;2023-02-26T08:46:36;97085.16;;;1.42;79.19
19208;BME280;9737;59.466;18.036;2023-02-26T08:49:04;96987.44;;;1.12;79.15
19208;BME280;9737;59.466;18.036;2023-02-26T08:51:32;96955.91;;;1.04;79.18
19208;BME280;9737;59.466;18.036;2023-02-26T08:54:00;96908.28;;;0.91;79.14
19208;BME280;9737;59.466;18.036;2023-02-26T08:56:28;96918.31;;;0.96;78.94
19208;BME280;9737;59.466;18.036;2023-02-26T08:58:57;97038.59;;;1.26;79.25
19208;BME280;9737;59.466;18.036;2023-02-26T09:01:26;97093.97;;;1.41;79.26
19208;BME280;9737;59.466;18.036;2023-02-26T09:03:54;97123.78;;;1.49;78.99
19208;BME280;9737;59.466;18.036;2023-02-26T09:06:22;97209.09;;;1.71;79.11
19208;BME280;9737;59.466;18.036;2023-02-26T09:08:51;97112.75;;;1.46;79.03
19208;BME280;9737;59.466;18.036;2023-02-26T09:11:18;97076.75;;;1.38;79.17
19208;BME280;9737;59.466;18.036;2023-02-26T09:13:46;97085.56;;;1.37;79.40
19208;BME280;9737;59.466;18.036;2023-02-26T09:16:14;97127.06;;;1.51;79.02
19208;BME280;9737;59.466;18.036;2023-02-26T09:18:44;97277.41;;;1.89;79.00
19208;BME280;9737;59.466;18.036;2023-02-26T09:21:12;97277.41;;;1.89;79.14
19208;BME280;9737;59.466;18.036;2023-02-26T09:23:39;97372.38;;;2.12;78.96
19208;BME280;9737;59.466;18.036;2023-02-26T09:26:07;97360.38;;;2.09;79.11
19208;BME280;9737;59.466;18.036;2023-02-26T09:28:35;97375.97;;;2.11;79.05
19208;BME280;9737;59.466;18.036;2023-02-26T09:31:03;97372.25;;;2.13;79.19
19208;BME280;9737;59.466;18.036;2023-02-26T09:33:33;97387.00;;;2.14;79.13
19208;BME280;9737;59.466;18.036;2023-02-26T09:36:04;97358.03;;;2.06;79.08
19208;BME280;9737;59.466;18.036;2023-02-26T09:38:32;97388.66;;;2.15;79.08
19208;BME280;9737;59.466;18.036;2023-02-26T09:41:03;97408.28;;;2.21;79.30
19208;BME280;9737;59.466;18.036;2023-02-26T09:46:33;97376.78;;;2.11;78.97
19208;BME280;9737;59.466;18.036;2023-02-26T09:49:14;97520.19;;;2.51;79.18
19208;BME280;9737;59.466;18.036;2023-02-26T09:51:48;97583.50;;;2.67;79.29
19208;BME280;9737;59.466;18.036;2023-02-26T09:54:21;97787.38;;;3.18;79.17
19208;BME280;9737;59.466;18.036;2023-02-26T09:56:50;97864.47;;;3.38;79.13
19208;BME280;9737;59.466;18.036;2023-02-26T09:59:19;97905.75;;;3.47;79.54
19208;BME280;9737;59.466;18.036;2023-02-26T10:01:54;97964.06;;;3.62;79.13
19208;BME280;9737;59.466;18.036;2023-02-26T10:04:34;98014.63;;;3.75;79.09
19208;BME280;9737;59.466;18.036;2023-02-26T10:07:15;98055.00;;;3.85;78.91
19208;BME280;9737;59.466;18.036;2023-02-26T10:09:56;97938.69;;;3.51;79.04
19208;BME280;9737;59.466;18.036;2023-02-26T10:12:30;98806.38;;;5.79;78.79
19208;BME280;9737;59.466;18.036;2023-02-26T10:15:03;99742.13;;;8.07;78.90
19208;BME280;9737;59.466;18.036;2023-02-26T10:17:40;99945.13;;;8.58;79.54
19208;BME280;9737;59.466;18.036;2023-02-26T10:20:14;99999.06;;;8.69;79.42
19208;BME280;9737;59.466;18.036;2023-02-26T10:22:55;100088.38;;;8.93;79.46
19208;BME280;9737;59.466;18.036;2023-02-26T10:25:30;100076.41;;;8.87;79.61
19208;BME280;9737;59.466;18.036;2023-02-26T10:28:05;99880.94;;;8.42;79.77
19208;BME280;9737;59.466;18.036;2023-02-26T10:30:35;99591.44;;;7.69;79.33
19208;BME280;9737;59.466;18.036;2023-02-26T10:33:11;99754.31;;;8.10;79.52
19208;BME280;9737;59.466;18.036;2023-02-26T10:35:46;99802.88;;;8.22;79.66
19208;BME280;9737;59.466;18.036;2023-02-26T10:38:22;99518.81;;;7.50;79.49
19208;BME280;9737;59.466;18.036;2023-02-26T10:40:54;99218.66;;;6.75;79.68
19208;BME280;9737;59.466;18.036;2023-02-26T10:43:28;99066.75;;;6.36;79.64
19208;BME280;9737;59.466;18.036;2023-02-26T10:46:08;98760.38;;;5.61;78.91
19208;BME280;9737;59.466;18.036;2023-02-26T10:48:51;98460.19;;;4.81;79.34
19208;BME280;9737;59.466;18.036;2023-02-26T10:51:23;98373.22;;;4.60;79.70
19208;BME280;9737;59.466;18.036;2023-02-26T10:53:57;98311.31;;;4.45;79.50
19208;BME280;9737;59.466;18.036;2023-02-26T10:56:28;98182.28;;;4.15;79.18
19208;BME280;9737;59.466;18.036;2023-02-26T10:58:57;98297.59;;;4.42;79.39
19208;BME280;9737;59.466;18.036;2023-02-26T11:01:29;98371.31;;;4.62;79.38
19208;BME280;9737;59.466;18.036;2023-02-26T11:04:00;98313.00;;;4.46;79.06
19208;BME280;9737;59.466;18.036;2023-02-26T11:06:32;98271.66;;;4.37;78.55
19208;BME280;9737;59.466;18.036;2023-02-26T11:09:02;98153.16;;;4.07;79.03
19208;BME280;9737;59.466;18.036;2023-02-26T11:11:39;98157.56;;;4.06;78.82
19208;BME280;9737;59.466;18.036;2023-02-26T11:14:08;98346.31;;;4.57;78.64
19208;BME280;9737;59.466;18.036;2023-02-26T11:16:42;98670.75;;;5.39;78.77
19208;BME280;9737;59.466;18.036;2023-02-26T11:19:13;99083.06;;;6.41;79.01
19208;BME280;9737;59.466;18.036;2023-02-26T11:21:43;99097.00;;;6.43;78.76
19208;BME280;9737;59.466;18.036;2023-02-26T11:24:28;99150.31;;;6.60;78.64
19208;BME280;9737;59.466;18.036;2023-02-26T11:26:59;99049.31;;;6.34;78.45
19208;BME280;9737;59.466;18.036;2023-02-26T11:29:34;98819.91;;;5.75;78.99
19208;BME280;9737;59.466;18.036;2023-02-26T11:32:05;98776.78;;;5.65;78.88
19208;BME280;9737;59.466;18.036;2023-02-26T11:34:33;98696.59;;;5.45;79.06
19208;BME280;9737;59.466;18.036;2023-02-26T11:37:03;98631.22;;;5.27;78.42
19208;BME280;9737;59.466;18.036;2023-02-26T11:39:35;98710.38;;;5.48;78.58
19208;BME280;9737;59.466;18.036;2023-02-26T11:42:05;98670.75;;;5.39;79.12
19208;BME280;9737;59.466;18.036;2023-02-26T11:44:37;98777.50;;;5.67;79.13
19208;BME280;9737;59.466;18.036;2023-02-26T11:47:09;98764.69;;;5.62;78.89
19208;BME280;9737;59.466;18.036;2023-02-26T11:49:41;98596.72;;;5.19;78.28
19208;BME280;9737;59.466;18.036;2023-02-26T11:52:18;98547.66;;;5.07;78.53
19208;BME280;9737;59.466;18.036;2023-02-26T11:54:49;98569.19;;;5.12;78.18
19208;BME280;9737;59.466;18.036;2023-02-26T11:57:19;98677.69;;;5.40;78.35
19208;BME280;9737;59.466;18.036;2023-02-26T11:59:52;98651.81;;;5.34;78.96
19208;BME280;9737;59.466;18.036;2023-02-26T12:02:22;98589.78;;;5.18;78.40
19208;BME280;9737;59.466;18.036;2023-02-26T12:04:52;98610.66;;;5.21;78.87
19208;BME280;9737;59.466;18.036;2023-02-26T12:07:20;98720.59;;;5.53;78.50
19208;BME280;9737;59.466;18.036;2023-02-26T12:09:50;98764.69;;;5.62;78.15
19208;BME280;9737;59.466;18.036;2023-02-26T12:12:26;98606.34;;;5.20;78.85
19208;BME280;9737;59.466;18.036;2023-02-26T12:15:07;98480.63;;;4.89;78.16
19208;BME280;9737;59.466;18.036;2023-02-26T12:17:50;98346.56;;;4.54;78.73
19208;BME280;9737;59.466;18.036;2023-02-26T12:20:32;98329.25;;;4.51;77.86
19208;BME280;9737;59.466;18.036;2023-02-26T12:23:13;98245.81;;;4.31;78.17
19208;BME280;9737;59.466;18.036;2023-02-26T12:26:02;98125.66;;;3.99;78.34
19208;BME280;9737;59.466;18.036;2023-02-26T12:28:43;98070.78;;;3.85;78.21
19208;BME280;9737;59.466;18.036;2023-02-26T12:34:57;98354.09;;;4.58;77.99
19208;BME280;9737;59.466;18.036;2023-02-26T12:37:46;98321.22;;;4.53;77.97
19208;BME280;9737;59.466;18.036;2023-02-26T12:40:41;98264.72;;;4.36;77.62
19208;BME280;9737;59.466;18.036;2023-02-26T12:43:18;98357.44;;;4.60;78.27
19208;BME280;9737;59.466;18.036;2023-02-26T12:45:53;98367.00;;;4.61;78.00
19208;BME280;9737;59.466;18.036;2023-02-26T12:48:52;98311.06;;;4.48;77.82
19208;BME280;9737;59.466;18.036;2023-02-26T12:51:35;98204.47;;;4.22;78.08
19208;BME280;9737;59.466;18.036;2023-02-26T12:54:34;98158.28;;;4.08;77.78
19208;BME280;9737;59.466;18.036;2023-02-26T12:57:29;98253.56;;;4.32;77.91
19208;BME280;9737;59.466;18.036;2023-02-26T13:00:20;98227.66;;;4.28;77.59
19208;BME280;9737;59.466;18.036;2023-02-26T13:03:15;98255.84;;;4.37;77.93
19208;BME280;9737;59.466;18.036;2023-02-26T13:06:07;98281.66;;;4.43;78.06
19208;BME280;9737;59.466;18.036;2023-02-26T13:08:46;98223.59;;;4.24;77.87
19208;BME280;9737;59.466;18.036;2023-02-26T13:11:25;98268.06;;;4.38;77.41
19208;BME280;9737;59.466;18.036;2023-02-26T13:14:17;98249.16;;;4.33;77.89
19208;BME280;9737;59.466;18.036;2023-02-26T13:16:53;98221.69;;;4.26;77.41
19208;BME280;9737;59.466;18.036;2023-02-26T13:19:32;98153.03;;;4.08;77.84
19208;BME280;9737;59.466;18.036;2023-02-26T13:22:07;98105.59;;;3.98;77.28
19208;BME280;9737;59.466;18.036;2023-02-26T13:24:40;98134.97;;;4.03;77.65
19208;BME280;9737;59.466;18.036;2023-02-26T13:27:11;98182.28;;;4.15;77.47
19208;BME280;9737;59.466;18.036;2023-02-26T13:29:44;98181.31;;;4.16;77.51
19208;BME280;9737;59.466;18.036;2023-02-26T13:32:16;98105.72;;;3.97;77.54
19208;BME280;9737;59.466;18.036;2023-02-26T13:34:51;98059.41;;;3.85;77.17
19208;BME280;9737;59.466;18.036;2023-02-26T13:37:23;97948.81;;;3.56;77.46
19208;BME280;9737;59.466;18.036;2023-02-26T13:39:59;97904.19;;;3.45;77.24
19208;BME280;9737;59.466;18.036;2023-02-26T13:42:36;97712.38;;;2.95;77.38
19208;BME280;9737;59.466;18.036;2023-02-26T13:45:20;97699.38;;;2.93;77.42